createdAt,value
2018-07-02T00:01:00.733Z,0.97
2018-07-02T00:05:57.291Z,1.10
2018-07-02T00:10:45.031Z,1.10
2018-07-02T00:15:32.071Z,1.03
2018-07-02T00:20:23.425Z,1.13
2018-07-02T00:25:10.131Z,1.10
2018-07-02T00:29:54.689Z,0.73
2018-07-02T00:34:39.333Z,1.00
2018-07-02T00:39:24.015Z,0.80
2018-07-02T00:44:08.551Z,0.90
2018-07-02T00:48:53.234Z,0.87
2018-07-02T00:53:38.020Z,0.70
2018-07-02T00:58:22.689Z,0.90
2018-07-02T01:03:08.873Z,0.90
2018-07-02T01:07:53.743Z,0.83
2018-07-02T01:12:38.382Z,0.90
2018-07-02T01:17:23.118Z,1.03
2018-07-02T01:22:09.309Z,1.07
2018-07-02T01:26:54.177Z,0.83
2018-07-02T01:31:38.825Z,0.90
2018-07-02T01:36:24.429Z,0.80
2018-07-02T01:41:10.020Z,0.70
2018-07-02T01:45:54.667Z,0.80
2018-07-02T01:50:39.609Z,0.80
2018-07-02T01:55:24.286Z,0.80
2018-07-02T02:00:09.038Z,0.80
2018-07-02T02:04:53.623Z,1.07
2018-07-02T02:09:38.271Z,0.97
2018-07-02T02:14:23.194Z,0.80
2018-07-02T02:19:08.226Z,1.07
2018-07-02T02:23:53.008Z,1.20
2018-07-02T02:28:37.627Z,1.00
2018-07-02T02:33:22.553Z,0.90
2018-07-02T02:38:07.440Z,1.10
2018-07-02T02:42:52.237Z,1.20
2018-07-02T02:47:36.874Z,1.03
2018-07-02T02:52:21.881Z,1.20
2018-07-02T02:57:08.005Z,1.30
2018-07-02T03:01:52.886Z,0.90
2018-07-02T03:06:37.662Z,1.40
2018-07-02T03:11:23.518Z,1.20
2018-07-02T03:16:08.216Z,1.10
2018-07-02T03:20:53.312Z,1.53
2018-07-02T03:25:37.995Z,1.10
2018-07-02T03:30:24.019Z,1.20
2018-07-02T03:35:11.086Z,1.40
2018-07-02T03:39:57.842Z,1.27
2018-07-02T03:44:42.523Z,1.20
2018-07-02T03:49:27.008Z,1.10
2018-07-02T03:54:11.418Z,0.80
2018-07-02T03:58:55.961Z,1.00
2018-07-02T04:03:41.183Z,1.00
2018-07-02T04:08:25.950Z,0.97
2018-07-02T04:13:10.435Z,1.00
2018-07-02T04:17:54.943Z,1.00
2018-07-02T04:22:39.741Z,0.77
2018-07-02T04:27:24.315Z,0.80
2018-07-02T04:32:08.833Z,0.67
2018-07-02T04:36:53.670Z,0.83
2018-07-02T04:41:38.489Z,1.10
2018-07-02T04:46:23.021Z,0.83
2018-07-02T04:51:07.716Z,0.73
2018-07-02T04:55:52.360Z,1.00
2018-07-02T05:00:36.996Z,0.60
2018-07-02T05:05:21.913Z,0.90
2018-07-02T05:10:06.571Z,1.03
2018-07-02T05:14:51.581Z,0.83
2018-07-02T05:19:35.999Z,0.60
2018-07-02T05:24:20.387Z,1.00
2018-07-02T05:29:04.737Z,1.00
2018-07-02T05:33:49.172Z,0.90
2018-07-02T05:38:33.690Z,0.90
2018-07-02T05:43:18.102Z,1.33
2018-07-02T05:48:02.646Z,2.53
2018-07-02T05:52:52.915Z,2.47
2018-07-02T05:57:39.640Z,2.17
2018-07-02T06:02:37.602Z,2.17
2018-07-02T06:07:21.950Z,1.50
2018-07-02T06:12:06.290Z,1.30
2018-07-02T06:16:50.907Z,1.23
2018-07-02T06:21:40.978Z,1.23
2018-07-02T06:26:25.552Z,1.20
2018-07-02T06:31:09.936Z,1.23
2018-07-02T06:35:54.317Z,1.40
2018-07-02T06:40:38.778Z,1.57
2018-07-02T06:45:23.326Z,1.03
2018-07-02T06:50:07.877Z,1.00
2018-07-02T06:54:52.434Z,1.30
2018-07-02T06:59:36.805Z,1.10
2018-07-02T07:04:21.259Z,1.77
2018-07-02T07:09:07.672Z,1.00
2018-07-02T07:13:52.083Z,1.40
2018-07-02T07:18:36.491Z,1.10
2018-07-02T07:23:21.347Z,1.33
2018-07-02T07:28:05.774Z,0.90
2018-07-02T07:32:50.210Z,1.00
2018-07-02T07:37:34.618Z,1.30
2018-07-02T07:42:19.028Z,0.80
2018-07-02T07:47:03.343Z,0.70
2018-07-02T07:51:48.343Z,0.77
2018-07-02T07:56:32.824Z,0.70
2018-07-02T08:01:17.235Z,1.10
2018-07-02T08:06:01.648Z,0.67
2018-07-02T08:10:46.072Z,0.63
2018-07-02T08:15:30.407Z,0.57
2018-07-02T08:20:14.788Z,0.50
2018-07-02T08:24:59.214Z,0.60
2018-07-02T08:29:43.604Z,0.70
2018-07-02T08:34:28.029Z,0.60
2018-07-02T08:39:12.983Z,0.50
2018-07-02T08:43:57.494Z,0.83
2018-07-02T08:48:41.810Z,0.90
2018-07-02T08:53:26.544Z,0.80
2018-07-02T08:58:10.946Z,0.50
2018-07-02T09:02:56.176Z,0.87
2018-07-02T09:07:40.671Z,0.60
2018-07-02T09:12:25.199Z,0.67
2018-07-02T09:17:09.660Z,0.60
2018-07-02T09:21:54.119Z,0.77
2018-07-02T09:26:38.754Z,0.70
2018-07-02T09:31:23.165Z,0.70
2018-07-02T09:36:07.696Z,0.90
2018-07-02T09:40:52.316Z,0.77
2018-07-02T09:45:36.667Z,0.83
2018-07-02T09:50:21.114Z,0.50
2018-07-02T09:55:05.826Z,0.80
2018-07-02T09:59:50.225Z,0.60
2018-07-02T10:04:34.673Z,0.60
2018-07-02T10:09:19.119Z,0.70
2018-07-02T10:14:03.512Z,0.73
2018-07-02T10:18:47.905Z,0.53
2018-07-02T10:23:37.332Z,0.50
2018-07-02T10:28:16.708Z,0.70
2018-07-02T10:33:01.118Z,0.60
2018-07-02T10:37:45.863Z,0.73
2018-07-02T10:42:30.351Z,0.90
2018-07-02T10:47:14.422Z,0.50
2018-07-02T10:51:58.657Z,0.57
2018-07-02T10:56:43.289Z,0.80
2018-07-02T11:01:27.819Z,0.70
2018-07-02T11:06:12.486Z,0.60
2018-07-02T11:10:56.923Z,0.43
2018-07-02T11:15:43.044Z,0.47
2018-07-02T11:20:27.540Z,0.50
2018-07-02T11:25:12.088Z,0.60
2018-07-02T11:29:56.626Z,0.60
2018-07-02T11:34:41.072Z,0.70
2018-07-02T11:39:25.503Z,0.53
2018-07-02T11:44:10.181Z,0.60
2018-07-02T11:48:54.856Z,0.50
2018-07-02T11:53:39.370Z,0.50
2018-07-02T11:58:23.803Z,0.63
2018-07-02T12:03:08.442Z,0.50
2018-07-02T12:07:52.920Z,0.40
2018-07-02T12:12:37.428Z,0.50
2018-07-02T12:17:21.779Z,0.60
2018-07-02T12:22:06.288Z,0.53
2018-07-02T12:26:50.979Z,0.85
2018-07-02T12:31:35.460Z,0.53
2018-07-02T12:36:19.825Z,0.57
2018-07-02T12:41:04.173Z,0.82
2018-07-02T12:45:48.539Z,0.42
2018-07-02T12:50:32.866Z,0.90
2018-07-02T12:55:17.384Z,0.63
2018-07-02T13:00:01.814Z,0.60
2018-07-02T13:04:46.245Z,0.50
2018-07-02T13:09:30.658Z,0.80
2018-07-02T13:14:15.099Z,0.53
2018-07-02T13:18:59.439Z,0.50
2018-07-02T13:23:43.938Z,0.60
2018-07-02T13:28:28.516Z,0.60
2018-07-02T13:33:12.682Z,0.50
2018-07-02T13:37:57.118Z,0.50
2018-07-02T13:42:41.640Z,0.70
2018-07-02T13:47:26.137Z,0.40
2018-07-02T13:52:11.331Z,0.50
2018-07-02T13:56:55.764Z,0.40
2018-07-02T14:01:40.495Z,0.53
2018-07-02T14:06:24.971Z,0.57
2018-07-02T14:11:09.644Z,0.60
2018-07-02T14:15:54.092Z,0.57
2018-07-02T14:20:38.448Z,0.80
2018-07-02T14:25:22.940Z,0.82
2018-07-02T14:30:07.927Z,0.50
2018-07-02T14:34:52.391Z,0.40
2018-07-02T14:39:36.932Z,0.70
2018-07-02T14:44:21.266Z,0.70
2018-07-02T14:49:06.039Z,0.60
2018-07-02T14:53:50.521Z,0.60
2018-07-02T14:58:35.006Z,0.50
2018-07-02T15:03:19.514Z,0.60
2018-07-02T15:08:03.871Z,0.47
2018-07-02T15:12:48.312Z,0.50
2018-07-02T15:17:32.961Z,0.50
2018-07-02T15:22:17.447Z,0.57
2018-07-02T15:27:02.111Z,0.60
2018-07-02T15:31:46.534Z,0.88
2018-07-02T15:36:30.902Z,0.60
2018-07-02T15:41:15.390Z,0.70
2018-07-02T15:46:01.335Z,0.87
2018-07-02T15:50:45.810Z,0.80
2018-07-02T15:55:30.540Z,0.50
2018-07-02T16:00:14.998Z,0.60
2018-07-02T16:04:59.411Z,0.50
2018-07-02T16:09:43.782Z,0.50
2018-07-02T16:14:29.148Z,0.50
2018-07-02T16:19:13.618Z,0.40
2018-07-02T16:23:58.162Z,1.37
2018-07-02T16:28:42.216Z,0.40
2018-07-02T16:33:26.538Z,0.72
2018-07-02T16:38:13.086Z,0.40
2018-07-02T16:42:57.501Z,0.45
2018-07-02T16:47:42.027Z,0.60
2018-07-02T16:52:26.631Z,0.53
2018-07-02T16:57:11.309Z,0.98
2018-07-02T17:01:55.906Z,1.30
2018-07-02T17:06:40.324Z,0.40
2018-07-02T17:11:24.744Z,0.60
2018-07-02T17:16:09.303Z,0.80
2018-07-02T17:20:53.797Z,1.15
2018-07-02T17:25:38.517Z,0.70
2018-07-02T17:30:23.059Z,0.40
2018-07-02T17:35:09.478Z,0.65
2018-07-02T17:39:53.988Z,0.70
2018-07-02T17:44:38.430Z,1.60
2018-07-02T17:49:22.939Z,1.00
2018-07-02T17:54:08.157Z,0.40
2018-07-02T17:58:52.857Z,0.70
2018-07-02T18:03:37.333Z,0.60
2018-07-02T18:08:21.855Z,0.80
2018-07-02T18:13:06.247Z,0.70
2018-07-02T18:17:50.671Z,1.20
2018-07-02T18:22:35.066Z,1.70
2018-07-02T18:27:19.512Z,0.90
2018-07-02T18:32:04.047Z,0.80
2018-07-02T18:36:48.703Z,0.77
2018-07-02T18:41:33.287Z,2.33
2018-07-02T18:46:17.719Z,1.60
2018-07-02T18:51:02.235Z,1.53
2018-07-02T18:55:46.703Z,1.10
2018-07-02T19:00:31.134Z,1.00
2018-07-02T19:05:15.608Z,1.10
2018-07-02T19:10:00.030Z,1.20
2018-07-02T19:14:44.552Z,1.30
2018-07-02T19:19:29.003Z,1.47
2018-07-02T19:24:13.557Z,2.07
2018-07-02T19:28:58.049Z,1.87
2018-07-02T19:33:42.610Z,1.20
2018-07-02T19:38:27.075Z,1.07
2018-07-02T19:43:11.565Z,1.50
2018-07-02T19:47:56.255Z,1.20
2018-07-02T19:52:41.060Z,1.17
2018-07-02T19:57:27.070Z,1.30
2018-07-02T20:02:12.024Z,1.10
2018-07-02T20:06:56.891Z,1.00
2018-07-02T20:11:41.971Z,1.00
2018-07-02T20:16:28.041Z,1.40
2018-07-02T20:21:13.056Z,1.20
2018-07-02T20:25:57.979Z,1.30
2018-07-02T20:30:43.100Z,1.30
2018-07-02T20:35:30.160Z,1.23
2018-07-02T20:40:15.308Z,1.30
2018-07-02T20:45:00.797Z,1.17
2018-07-02T20:49:45.590Z,1.30
2018-07-02T20:54:30.764Z,1.07
2018-07-02T20:59:15.650Z,1.20
2018-07-02T21:04:00.519Z,1.10
2018-07-02T21:08:45.486Z,1.30
2018-07-02T21:13:31.575Z,1.37
2018-07-02T21:18:17.171Z,1.40
2018-07-02T21:23:05.305Z,1.10
2018-07-02T21:27:52.522Z,1.20
2018-07-02T21:32:42.303Z,0.90
2018-07-02T21:37:32.660Z,1.10
2018-07-02T21:42:24.958Z,1.10
2018-07-02T21:47:17.705Z,1.10
2018-07-02T21:52:02.748Z,1.00
2018-07-02T21:57:02.463Z,1.00
2018-07-02T22:06:46.380Z,1.20
2018-07-02T22:11:31.378Z,0.90
2018-07-02T22:16:24.425Z,1.10
2018-07-02T22:26:24.281Z,1.13
2018-07-02T22:31:09.162Z,1.27
2018-07-02T22:35:56.535Z,0.93
2018-07-02T22:40:47.850Z,1.20
2018-07-02T22:45:37.580Z,0.93
2018-07-02T22:50:23.465Z,1.20
2018-07-02T22:55:13.098Z,1.30
2018-07-02T23:06:55.184Z,0.83
2018-07-02T23:11:42.880Z,1.23
2018-07-02T23:16:28.388Z,1.10
2018-07-02T23:21:22.123Z,0.97
2018-07-02T23:26:07.141Z,0.90
2018-07-02T23:30:52.089Z,0.80
2018-07-02T23:35:36.654Z,0.70
2018-07-02T23:40:25.378Z,1.10
2018-07-02T23:45:12.705Z,1.00
2018-07-02T23:49:57.393Z,0.90
2018-07-02T23:54:42.209Z,0.87
2018-07-02T23:59:27.989Z,0.80
